createdAt,value
2018-08-24T00:00:48.400Z,19.38
2018-08-24T00:03:15.437Z,19.38
2018-08-24T00:05:42.372Z,19.40
2018-08-24T00:08:09.306Z,19.36
2018-08-24T00:10:36.216Z,19.32
2018-08-24T00:13:03.154Z,19.34
2018-08-24T00:15:30.081Z,19.36
2018-08-24T00:17:57.009Z,19.33
2018-08-24T00:20:23.946Z,19.31
2018-08-24T00:22:50.876Z,19.32
2018-08-24T00:25:17.773Z,19.22
2018-08-24T00:27:44.733Z,19.32
2018-08-24T00:30:11.654Z,19.34
2018-08-24T00:32:38.561Z,19.37
2018-08-24T00:35:05.481Z,19.39
2018-08-24T00:37:32.400Z,19.41
2018-08-24T00:39:59.325Z,19.39
2018-08-24T00:42:26.216Z,19.40
2018-08-24T00:44:53.132Z,19.44
2018-08-24T00:47:20.068Z,19.48
2018-08-24T00:49:46.969Z,19.50
2018-08-24T00:52:13.864Z,19.52
2018-08-24T00:54:40.775Z,19.53
2018-08-24T00:57:07.682Z,19.50
2018-08-24T00:59:34.564Z,19.49
2018-08-24T01:02:01.464Z,19.54
2018-08-24T01:04:34.445Z,19.50
2018-08-24T01:07:06.589Z,19.49
2018-08-24T01:09:34.036Z,19.49
2018-08-24T01:12:06.767Z,19.52
2018-08-24T01:14:33.656Z,19.52
2018-08-24T01:17:06.221Z,19.52
2018-08-24T01:19:33.133Z,19.49
2018-08-24T01:22:00.129Z,19.51
2018-08-24T01:24:29.076Z,19.48
2018-08-24T01:27:04.218Z,19.44
2018-08-24T01:29:32.284Z,19.48
2018-08-24T01:31:59.204Z,19.45
2018-08-24T01:34:26.138Z,19.41
2018-08-24T01:36:53.053Z,19.29
2018-08-24T01:39:19.992Z,19.26
2018-08-24T01:41:46.981Z,19.17
2018-08-24T01:44:13.920Z,18.93
2018-08-24T01:46:40.840Z,18.88
2018-08-24T01:49:07.825Z,18.81
2018-08-24T01:51:34.784Z,18.53
2018-08-24T01:54:01.724Z,18.44
2018-08-24T01:56:28.641Z,18.53
2018-08-24T01:58:55.567Z,18.49
2018-08-24T02:01:22.496Z,18.48
2018-08-24T02:03:49.421Z,18.42
2018-08-24T02:06:16.348Z,18.47
2018-08-24T02:08:43.294Z,18.41
2018-08-24T02:11:16.009Z,18.44
2018-08-24T02:13:48.683Z,18.39
2018-08-24T02:16:15.644Z,18.32
2018-08-24T02:18:48.382Z,18.08
2018-08-24T02:21:21.031Z,18.07
2018-08-24T02:23:47.952Z,18.08
2018-08-24T02:26:14.877Z,17.92
2018-08-24T02:28:41.792Z,17.99
2018-08-24T02:31:08.696Z,18.05
2018-08-24T02:33:37.400Z,18.05
2018-08-24T02:36:04.345Z,18.05
2018-08-24T02:38:31.261Z,17.98
2018-08-24T02:40:58.170Z,18.07
2018-08-24T02:43:25.115Z,18.10
2018-08-24T02:45:52.024Z,18.09
2018-08-24T02:48:18.920Z,18.00
2018-08-24T02:50:45.853Z,18.00
2018-08-24T02:53:12.776Z,18.09
2018-08-24T02:55:39.684Z,18.10
2018-08-24T02:58:06.623Z,18.05
2018-08-24T03:00:33.549Z,17.98
2018-08-24T03:03:00.453Z,18.01
2018-08-24T03:05:27.555Z,17.90
2018-08-24T03:07:54.333Z,17.88
2018-08-24T03:10:21.248Z,17.87
2018-08-24T03:12:48.192Z,17.92
2018-08-24T03:15:15.097Z,17.89
2018-08-24T03:17:47.778Z,17.82
2018-08-24T03:20:14.733Z,17.90
2018-08-24T03:22:41.693Z,17.93
2018-08-24T03:25:08.616Z,17.96
2018-08-24T03:27:35.547Z,17.91
2018-08-24T03:30:02.502Z,17.80
2018-08-24T03:32:29.412Z,17.80
2018-08-24T03:34:56.353Z,17.79
2018-08-24T03:37:23.296Z,17.76
2018-08-24T03:39:50.225Z,17.69
2018-08-24T03:42:17.545Z,17.61
2018-08-24T03:44:44.630Z,17.66
2018-08-24T03:47:11.530Z,17.62
2018-08-24T03:49:38.481Z,17.49
2018-08-24T03:52:05.433Z,17.47
2018-08-24T03:54:32.362Z,17.42
2018-08-24T03:56:59.316Z,17.32
2018-08-24T03:59:26.681Z,17.28
2018-08-24T04:01:54.730Z,17.20
2018-08-24T04:04:21.702Z,17.16
2018-08-24T04:06:48.772Z,17.14
2018-08-24T04:09:15.720Z,17.20
2018-08-24T04:11:42.830Z,17.07
2018-08-24T04:14:09.773Z,17.13
2018-08-24T04:16:42.441Z,16.97
2018-08-24T04:19:14.938Z,17.01
2018-08-24T04:21:41.884Z,17.01
2018-08-24T04:24:08.890Z,16.92
2018-08-24T04:26:35.856Z,16.92
2018-08-24T04:29:02.768Z,16.95
2018-08-24T04:31:29.685Z,16.97
2018-08-24T04:33:56.674Z,16.91
2018-08-24T04:36:23.600Z,16.86
2018-08-24T04:38:50.519Z,16.90
2018-08-24T04:41:17.447Z,16.85
2018-08-24T04:43:44.354Z,16.97
2018-08-24T04:46:11.282Z,17.01
2018-08-24T04:48:38.212Z,17.00
2018-08-24T04:51:05.191Z,16.93
2018-08-24T04:53:32.081Z,16.88
2018-08-24T04:55:59.009Z,16.83
2018-08-24T04:58:25.939Z,16.76
2018-08-24T05:00:52.834Z,16.76
2018-08-24T05:03:19.748Z,16.72
2018-08-24T05:05:53.465Z,16.66
2018-08-24T05:08:20.356Z,16.62
2018-08-24T05:10:47.280Z,16.61
2018-08-24T05:13:14.320Z,16.55
2018-08-24T05:15:41.246Z,16.53
2018-08-24T05:18:08.175Z,16.48
2018-08-24T05:20:35.118Z,16.46
2018-08-24T05:23:02.080Z,16.49
2018-08-24T05:25:29.023Z,16.59
2018-08-24T05:27:55.975Z,16.50
2018-08-24T05:30:22.994Z,16.42
2018-08-24T05:32:49.921Z,16.42
2018-08-24T05:35:16.849Z,16.49
2018-08-24T05:37:43.748Z,16.40
2018-08-24T05:40:10.664Z,16.43
2018-08-24T05:42:37.596Z,16.49
2018-08-24T05:45:11.844Z,16.54
2018-08-24T05:47:38.761Z,16.60
2018-08-24T05:50:05.813Z,16.75
2018-08-24T05:52:32.740Z,16.78
2018-08-24T05:54:59.657Z,16.97
2018-08-24T05:57:26.544Z,17.08
2018-08-24T05:59:53.450Z,16.98
2018-08-24T06:02:20.400Z,16.87
2018-08-24T06:04:47.341Z,16.88
2018-08-24T06:07:14.264Z,16.99
2018-08-24T06:09:41.182Z,17.01
2018-08-24T06:12:08.135Z,17.09
2018-08-24T06:14:35.105Z,17.08
2018-08-24T06:17:07.873Z,17.12
2018-08-24T06:19:34.785Z,17.18
2018-08-24T06:22:01.736Z,17.29
2018-08-24T06:24:28.683Z,17.26
2018-08-24T06:26:55.640Z,17.24
2018-08-24T06:29:22.601Z,17.26
2018-08-24T06:31:49.530Z,17.23
2018-08-24T06:34:16.452Z,17.31
2018-08-24T06:36:43.390Z,17.32
2018-08-24T06:39:11.992Z,17.49
2018-08-24T06:41:38.971Z,17.45
2018-08-24T06:44:06.009Z,17.49
2018-08-24T06:46:32.944Z,17.57
2018-08-24T06:48:59.863Z,17.53
2018-08-24T06:51:26.784Z,17.47
2018-08-24T06:53:53.827Z,17.57
2018-08-24T06:56:20.675Z,17.44
2018-08-24T06:58:47.605Z,17.41
2018-08-24T07:01:14.502Z,17.59
2018-08-24T07:03:41.470Z,17.51
2018-08-24T07:06:08.393Z,17.55
2018-08-24T07:08:35.324Z,17.59
2018-08-24T07:11:02.290Z,17.57
2018-08-24T07:13:29.239Z,17.55
2018-08-24T07:15:56.199Z,17.61
2018-08-24T07:18:23.124Z,17.52
2018-08-24T07:20:50.052Z,17.65
2018-08-24T07:23:16.999Z,17.74
2018-08-24T07:25:43.922Z,17.83
2018-08-24T07:28:10.852Z,17.87
2018-08-24T07:30:37.776Z,17.88
2018-08-24T07:33:04.736Z,18.02
2018-08-24T07:35:31.679Z,18.05
2018-08-24T07:37:58.642Z,17.93
2018-08-24T07:40:25.573Z,17.89
2018-08-24T07:42:52.504Z,17.99
2018-08-24T07:45:19.428Z,18.23
2018-08-24T07:47:46.361Z,18.21
2018-08-24T07:50:13.337Z,18.10
2018-08-24T07:52:40.295Z,18.22
2018-08-24T07:55:07.244Z,18.12
2018-08-24T07:57:34.175Z,18.41
2018-08-24T08:00:01.076Z,18.31
2018-08-24T08:02:33.625Z,18.28
2018-08-24T08:05:00.536Z,18.37
2018-08-24T08:07:27.509Z,18.59
2018-08-24T08:09:54.426Z,18.61
2018-08-24T08:12:21.344Z,18.92
2018-08-24T08:14:54.035Z,18.52
2018-08-24T08:17:20.970Z,18.50
2018-08-24T08:19:47.860Z,18.39
2018-08-24T08:22:14.825Z,18.25
2018-08-24T08:24:41.817Z,17.96
2018-08-24T08:27:08.697Z,17.70
2018-08-24T08:29:41.501Z,18.25
2018-08-24T08:32:08.392Z,18.32
2018-08-24T08:34:39.916Z,18.56
2018-08-24T08:37:06.851Z,18.50
2018-08-24T08:39:33.797Z,18.44
2018-08-24T08:42:00.728Z,18.32
2018-08-24T08:44:27.664Z,18.04
2018-08-24T08:46:54.614Z,17.94
2018-08-24T08:49:21.542Z,18.07
2018-08-24T08:51:48.477Z,18.39
2018-08-24T08:54:15.397Z,18.69
2018-08-24T08:56:42.323Z,18.52
2018-08-24T08:59:09.244Z,18.40
2018-08-24T09:01:36.230Z,18.50
2018-08-24T09:04:04.688Z,18.40
2018-08-24T09:06:31.755Z,18.05
2018-08-24T09:08:58.621Z,18.10
2018-08-24T09:11:25.576Z,18.04
2018-08-24T09:13:52.518Z,18.15
2018-08-24T09:16:20.813Z,18.06
2018-08-24T09:18:53.613Z,18.04
2018-08-24T09:21:26.329Z,18.24
2018-08-24T09:23:59.001Z,18.26
2018-08-24T09:26:31.718Z,18.42
2018-08-24T09:29:04.476Z,18.84
2018-08-24T09:31:33.441Z,19.00
2018-08-24T09:34:00.664Z,19.02
2018-08-24T09:36:29.203Z,18.97
2018-08-24T09:38:56.151Z,18.68
2018-08-24T09:41:23.264Z,18.51
2018-08-24T09:43:57.826Z,18.63
2018-08-24T09:46:30.668Z,18.80
2018-08-24T09:49:03.594Z,18.71
2018-08-24T09:51:30.545Z,18.79
2018-08-24T09:54:04.915Z,18.82
2018-08-24T09:56:32.856Z,19.02
2018-08-24T09:59:01.456Z,18.72
2018-08-24T10:01:34.905Z,18.43
2018-08-24T10:04:08.450Z,18.42
2018-08-24T10:06:41.839Z,18.70
2018-08-24T10:09:10.718Z,19.44
2018-08-24T10:11:37.717Z,19.93
2018-08-24T10:14:04.912Z,19.97
2018-08-24T10:16:32.053Z,20.18
2018-08-24T10:19:00.434Z,20.18
2018-08-24T10:21:27.595Z,19.81
2018-08-24T10:23:55.709Z,19.64
2018-08-24T10:26:23.044Z,20.24
2018-08-24T10:28:49.949Z,19.91
2018-08-24T10:31:17.929Z,19.55
2018-08-24T10:33:44.895Z,20.00
2018-08-24T10:36:11.944Z,20.42
2018-08-24T10:38:39.279Z,20.10
2018-08-24T10:41:07.030Z,20.56
2018-08-24T10:43:34.015Z,21.12
2018-08-24T10:46:00.951Z,20.89
2018-08-24T10:48:27.977Z,18.37
2018-08-24T10:50:54.957Z,17.17
2018-08-24T10:53:22.117Z,16.29
2018-08-24T10:55:50.047Z,16.15
2018-08-24T10:58:17.132Z,15.92
2018-08-24T11:00:44.400Z,15.90
2018-08-24T11:03:11.328Z,16.01
2018-08-24T11:05:38.248Z,16.11
2018-08-24T11:08:05.157Z,15.88
2018-08-24T11:10:32.636Z,15.56
2018-08-24T11:12:59.573Z,15.62
2018-08-24T11:15:26.518Z,15.81
2018-08-24T11:17:59.066Z,16.14
2018-08-24T11:20:26.001Z,17.27
2018-08-24T11:22:52.931Z,17.66
2018-08-24T11:25:19.856Z,17.60
2018-08-24T11:27:46.774Z,17.51
2018-08-24T11:30:13.707Z,17.75
2018-08-24T11:32:40.612Z,18.99
2018-08-24T11:35:07.556Z,19.46
2018-08-24T11:37:34.485Z,19.05
2018-08-24T11:40:01.486Z,19.20
2018-08-24T11:42:28.745Z,20.35
2018-08-24T11:44:55.692Z,20.54
2018-08-24T11:47:22.642Z,20.04
2018-08-24T11:49:50.786Z,20.04
2018-08-24T11:52:18.666Z,20.56
2018-08-24T11:54:45.576Z,20.40
2018-08-24T11:57:12.498Z,20.28
2018-08-24T11:59:39.463Z,20.61
2018-08-24T12:02:06.466Z,20.63
2018-08-24T12:04:33.408Z,20.95
2018-08-24T12:07:00.344Z,20.76
2018-08-24T12:09:27.273Z,20.77
2018-08-24T12:11:55.173Z,20.91
2018-08-24T12:14:22.148Z,21.17
2018-08-24T12:16:49.052Z,21.33
2018-08-24T12:19:16.013Z,21.32
2018-08-24T12:21:43.043Z,20.60
2018-08-24T12:24:09.896Z,19.93
2018-08-24T12:26:36.828Z,19.32
2018-08-24T12:29:03.880Z,19.69
2018-08-24T12:31:30.854Z,20.38
2018-08-24T12:33:57.815Z,20.94
2018-08-24T12:36:24.769Z,20.21
2018-08-24T12:38:51.688Z,20.94
2018-08-24T12:41:18.655Z,21.26
2018-08-24T12:43:45.569Z,21.73
2018-08-24T12:46:12.451Z,21.21
2018-08-24T12:48:39.388Z,21.43
2018-08-24T12:51:06.304Z,21.16
2018-08-24T12:53:33.239Z,20.68
2018-08-24T12:56:00.181Z,19.94
2018-08-24T12:58:27.144Z,19.80
2018-08-24T13:00:54.111Z,20.73
2018-08-24T13:03:21.037Z,21.64
2018-08-24T13:05:47.988Z,21.87
2018-08-24T13:08:14.916Z,21.71
2018-08-24T13:10:43.561Z,21.81
2018-08-24T13:13:10.556Z,21.21
2018-08-24T13:15:37.497Z,20.77
2018-08-24T13:18:05.152Z,20.22
2018-08-24T13:20:32.085Z,20.66
2018-08-24T13:23:00.304Z,19.79
2018-08-24T13:25:27.229Z,20.22
2018-08-24T13:27:54.279Z,20.69
2018-08-24T13:30:21.201Z,21.96
2018-08-24T13:32:48.140Z,21.81
2018-08-24T13:35:15.077Z,21.42
2018-08-24T13:37:42.001Z,20.26
2018-08-24T13:40:08.900Z,20.74
2018-08-24T13:42:35.824Z,21.16
2018-08-24T13:45:02.795Z,21.24
2018-08-24T13:47:29.843Z,21.53
2018-08-24T13:49:56.664Z,21.54
2018-08-24T13:52:23.701Z,20.42
2018-08-24T13:54:50.665Z,20.13
2018-08-24T13:57:17.568Z,20.04
2018-08-24T13:59:44.628Z,19.98
2018-08-24T14:02:11.529Z,19.93
2018-08-24T14:04:38.450Z,20.37
2018-08-24T14:07:05.424Z,20.78
2018-08-24T14:09:32.349Z,20.99
2018-08-24T14:11:59.281Z,21.06
2018-08-24T14:14:26.201Z,20.74
2018-08-24T14:16:53.145Z,20.66
2018-08-24T14:19:20.053Z,20.56
2018-08-24T14:21:46.985Z,20.25
2018-08-24T14:24:13.906Z,19.95
2018-08-24T14:26:41.057Z,19.61
2018-08-24T14:29:08.152Z,19.36
2018-08-24T14:31:35.039Z,19.02
2018-08-24T14:34:02.009Z,18.29
2018-08-24T14:36:28.948Z,17.17
2018-08-24T14:38:55.853Z,15.81
2018-08-24T14:41:22.873Z,15.23
2018-08-24T14:43:49.898Z,15.27
2018-08-24T14:46:16.882Z,15.71
2018-08-24T14:48:43.985Z,15.93
2018-08-24T14:51:10.899Z,15.93
2018-08-24T14:53:37.841Z,15.88
2018-08-24T14:56:04.806Z,15.80
2018-08-24T14:58:31.740Z,15.49
2018-08-24T15:00:58.686Z,15.81
2018-08-24T15:03:25.616Z,16.02
2018-08-24T15:05:52.533Z,16.33
2018-08-24T15:08:19.505Z,16.55
2018-08-24T15:10:46.416Z,16.54
2018-08-24T15:13:13.337Z,16.43
2018-08-24T15:15:40.293Z,16.49
2018-08-24T15:18:07.225Z,16.58
2018-08-24T15:20:34.160Z,16.63
2018-08-24T15:23:01.243Z,16.60
2018-08-24T15:25:28.285Z,16.67
2018-08-24T15:27:55.604Z,16.39
2018-08-24T15:30:23.311Z,16.67
2018-08-24T15:32:50.252Z,16.48
2018-08-24T15:35:17.281Z,16.57
2018-08-24T15:37:44.102Z,16.61
2018-08-24T15:40:11.012Z,16.67
2018-08-24T15:42:37.925Z,16.86
2018-08-24T15:45:05.945Z,16.82
2018-08-24T15:47:32.853Z,16.71
2018-08-24T15:49:59.779Z,16.79
2018-08-24T15:52:26.704Z,17.00
2018-08-24T15:54:53.609Z,16.82
2018-08-24T15:57:20.534Z,16.68
2018-08-24T15:59:47.440Z,16.62
2018-08-24T16:02:14.356Z,16.59
2018-08-24T16:04:41.301Z,16.41
2018-08-24T16:07:08.220Z,16.47
2018-08-24T16:09:35.121Z,16.69
2018-08-24T16:12:02.052Z,16.74
2018-08-24T16:14:28.957Z,16.81
2018-08-24T16:16:55.874Z,16.96
2018-08-24T16:19:22.810Z,17.06
2018-08-24T16:21:49.749Z,17.02
2018-08-24T16:24:16.696Z,16.80
2018-08-24T16:26:43.637Z,16.90
2018-08-24T16:29:10.597Z,16.87
2018-08-24T16:31:37.526Z,16.78
2018-08-24T16:34:04.510Z,16.88
2018-08-24T16:36:31.449Z,16.83
2018-08-24T16:38:58.457Z,16.88
2018-08-24T16:41:25.337Z,16.84
2018-08-24T16:46:25.926Z,16.87
2018-08-24T16:48:52.851Z,16.91
2018-08-24T16:51:19.793Z,16.87
2018-08-24T16:56:20.389Z,16.78
2018-08-24T16:58:47.325Z,16.78
2018-08-24T17:01:14.284Z,16.75
2018-08-24T17:03:41.219Z,16.78
2018-08-24T17:06:08.165Z,16.73
2018-08-24T17:08:35.386Z,16.59
2018-08-24T17:11:02.372Z,16.70
2018-08-24T17:13:29.297Z,16.75
2018-08-24T17:15:56.346Z,16.61
2018-08-24T17:18:23.304Z,16.63
2018-08-24T17:20:50.220Z,16.54
2018-08-24T17:23:17.202Z,16.53
2018-08-24T17:25:44.160Z,16.43
2018-08-24T17:28:11.077Z,16.43
2018-08-24T17:30:38.040Z,16.41
2018-08-24T17:33:05.424Z,16.44
2018-08-24T17:35:32.412Z,16.39
2018-08-24T17:37:59.329Z,16.35
2018-08-24T17:40:26.293Z,16.35
2018-08-24T17:42:55.053Z,16.22
2018-08-24T17:45:21.981Z,16.17
2018-08-24T17:47:49.121Z,16.24
2018-08-24T17:50:16.048Z,16.11
2018-08-24T17:52:43.033Z,16.15
2018-08-24T17:55:09.965Z,16.14
2018-08-24T17:57:36.893Z,16.12
2018-08-24T18:00:03.900Z,16.07
2018-08-24T18:02:30.883Z,16.17
2018-08-24T18:04:57.822Z,16.01
2018-08-24T18:07:24.872Z,15.47
2018-08-24T18:09:51.745Z,15.23
2018-08-24T18:12:18.710Z,14.91
2018-08-24T18:14:45.719Z,14.42
2018-08-24T18:17:12.807Z,14.32
2018-08-24T18:19:39.751Z,14.21
2018-08-24T18:22:06.725Z,13.92
2018-08-24T18:24:33.798Z,14.02
2018-08-24T18:27:00.620Z,14.13
2018-08-24T18:29:27.630Z,14.04
2018-08-24T18:31:54.600Z,13.95
2018-08-24T18:34:21.574Z,13.95
2018-08-24T18:36:48.581Z,13.88
2018-08-24T18:39:15.544Z,13.80
2018-08-24T18:41:42.498Z,13.91
2018-08-24T18:44:09.996Z,13.88
2018-08-24T18:46:36.998Z,13.72
2018-08-24T18:49:04.109Z,13.74
2018-08-24T18:51:31.020Z,13.64
2018-08-24T18:53:57.949Z,13.66
2018-08-24T18:56:24.912Z,13.65
2018-08-24T18:58:51.825Z,13.56
2018-08-24T19:01:18.767Z,13.62
2018-08-24T19:03:45.782Z,13.66
2018-08-24T19:06:12.727Z,13.55
2018-08-24T19:08:39.673Z,13.54
2018-08-24T19:11:12.229Z,13.49
2018-08-24T19:13:39.188Z,13.49
2018-08-24T19:16:06.122Z,13.39
2018-08-24T19:18:38.862Z,13.36
2018-08-24T19:21:11.428Z,13.23
2018-08-24T19:23:38.328Z,13.20
2018-08-24T19:26:05.314Z,13.10
2018-08-24T19:28:38.133Z,13.11
2018-08-24T19:31:05.174Z,13.08
2018-08-24T19:33:32.131Z,13.11
2018-08-24T19:35:59.088Z,12.95
2018-08-24T19:38:26.057Z,12.90
2018-08-24T19:40:58.740Z,12.98
2018-08-24T19:43:25.655Z,12.98
2018-08-24T19:45:52.598Z,12.97
2018-08-24T19:48:25.228Z,12.89
2018-08-24T19:50:52.102Z,12.94
2018-08-24T19:53:19.054Z,12.74
2018-08-24T19:55:46.001Z,12.77
2018-08-24T19:58:18.664Z,12.90
2018-08-24T20:00:45.627Z,12.88
2018-08-24T20:03:12.622Z,12.61
2018-08-24T20:05:39.683Z,12.77
2018-08-24T20:08:12.312Z,12.85
2018-08-24T20:10:39.267Z,12.88
2018-08-24T20:13:06.314Z,12.95
2018-08-24T20:15:39.064Z,12.95
2018-08-24T20:18:06.173Z,12.90
2018-08-24T20:20:33.232Z,12.74
2018-08-24T20:23:00.180Z,12.65
2018-08-24T20:25:27.133Z,12.72
2018-08-24T20:27:54.081Z,12.69
2018-08-24T20:30:21.029Z,12.68
2018-08-24T20:32:47.969Z,12.64
2018-08-24T20:35:14.942Z,12.72
2018-08-24T20:37:41.892Z,12.74
2018-08-24T20:40:08.929Z,12.73
2018-08-24T20:42:35.893Z,12.77
2018-08-24T20:45:02.955Z,12.83
2018-08-24T20:47:29.919Z,12.66
2018-08-24T20:49:56.865Z,12.62
2018-08-24T20:52:23.817Z,12.63
2018-08-24T20:54:50.795Z,12.59
2018-08-24T20:57:17.726Z,12.59
2018-08-24T20:59:44.692Z,12.54
2018-08-24T21:02:11.603Z,12.54
2018-08-24T21:04:38.918Z,12.51
2018-08-24T21:07:05.932Z,12.48
2018-08-24T21:09:32.871Z,12.48
2018-08-24T21:11:59.867Z,12.42
2018-08-24T21:14:27.140Z,12.51
2018-08-24T21:16:54.174Z,12.39
2018-08-24T21:19:21.076Z,12.41
2018-08-24T21:21:48.049Z,12.39
2018-08-24T21:24:15.012Z,12.50
2018-08-24T21:26:42.015Z,12.49
2018-08-24T21:29:09.128Z,12.45
2018-08-24T21:31:36.050Z,12.51
2018-08-24T21:34:03.017Z,12.48
2018-08-24T21:36:29.985Z,12.51
2018-08-24T21:38:56.951Z,12.50
2018-08-24T21:41:24.132Z,12.47
2018-08-24T21:43:51.068Z,12.45
2018-08-24T21:46:18.311Z,12.42
2018-08-24T21:48:45.213Z,12.41
2018-08-24T21:51:12.162Z,12.37
2018-08-24T21:53:39.118Z,12.26
2018-08-24T21:56:06.506Z,12.28
2018-08-24T21:58:33.449Z,12.27
2018-08-24T22:01:00.444Z,12.25
2018-08-24T22:03:27.386Z,12.21
2018-08-24T22:05:54.296Z,12.23
2018-08-24T22:08:21.240Z,12.25
2018-08-24T22:10:48.213Z,12.26
2018-08-24T22:13:15.110Z,12.25
2018-08-24T22:15:42.069Z,12.21
2018-08-24T22:18:09.018Z,12.30
2018-08-24T22:20:35.970Z,12.29
2018-08-24T22:23:02.945Z,12.25
2018-08-24T22:25:29.920Z,12.27
2018-08-24T22:27:56.852Z,12.26
2018-08-24T22:30:23.787Z,12.25
2018-08-24T22:32:50.713Z,12.22
2018-08-24T22:35:17.646Z,12.17
2018-08-24T22:37:44.604Z,12.21
2018-08-24T22:40:11.545Z,12.14
2018-08-24T22:42:41.500Z,12.18
2018-08-24T22:45:08.433Z,12.14
2018-08-24T22:47:35.381Z,12.03
2018-08-24T22:50:02.317Z,12.01
2018-08-24T22:52:29.276Z,11.94
2018-08-24T22:54:56.218Z,11.92
2018-08-24T22:57:23.168Z,11.88
2018-08-24T22:59:50.149Z,11.88
2018-08-24T23:02:17.100Z,11.86
2018-08-24T23:04:44.071Z,11.82
2018-08-24T23:07:11.058Z,11.80
2018-08-24T23:09:37.993Z,11.83
2018-08-24T23:12:05.239Z,11.88
2018-08-24T23:14:32.213Z,11.78
2018-08-24T23:16:59.166Z,11.85
2018-08-24T23:19:26.133Z,11.79
2018-08-24T23:21:53.077Z,11.79
2018-08-24T23:24:19.980Z,11.80
2018-08-24T23:26:46.938Z,11.76
2018-08-24T23:29:13.948Z,11.76
2018-08-24T23:31:40.892Z,11.65
2018-08-24T23:34:08.116Z,11.60
2018-08-24T23:36:35.000Z,11.72
2018-08-24T23:39:02.613Z,11.72
2018-08-24T23:41:29.545Z,11.62
2018-08-24T23:43:56.503Z,11.59
2018-08-24T23:46:23.429Z,11.56
2018-08-24T23:48:50.383Z,11.47
2018-08-24T23:51:17.333Z,11.58
2018-08-24T23:53:44.313Z,11.62
2018-08-24T23:56:11.240Z,11.67
2018-08-24T23:58:38.195Z,11.67
